• Join FlightAware (Why Join?)
  • Login
  • US Flag 
02:20AM EDT


 

Airport Tracker/Info


-or-


 

Live Flight TrackerFlight Track Log ✈ EJA922 ✈ 09-Jan-2014 ✈ KSJC - KBUR

Flight Track Log - Related Links

Times and Time Zones

All times are in EST time to prevent confusion due to time zone crossing. See the EJA922 flight status page for this flight to view local times or setup timezone preferences in your user account.

Time Position Orientation Groundspeed Altitude Reporting Facility
EST Latitude Longitude Course Direction KTS MPH feet Rate Location/Type
01:10PM 37.4333 -121.9500 22° Northeast 216 249 4,600  Level Northern Cal TRACON
01:13PM 37.3347 -121.7972 129° Southeast 278 320 7,700 1,860 Climbing Oakland Center
01:14PM 37.2689 -121.7219 138° Southeast 319 367 10,700 2,760 Climbing Oakland Center
01:15PM 36.9102 -121.3926 141° Southeast  Level Estimated
01:15PM 37.1944 -121.6369 138° Southeast 360 414 13,400  Level Oakland Center
01:16PM 37.1106 -121.5422 138° Southeast 400 460 16,000 2,700 Climbing Oakland Center
01:17PM 37.0311 -121.4556 139° Southeast 410 472 19,000 3,000 Climbing Oakland Center
01:18PM 36.9450 -121.3622 139° Southeast 411 473 22,200 3,060 Climbing Oakland Center
01:19PM 36.8581 -121.2683 139° Southeast 413 475 25,300 2,340 Climbing Oakland Center
01:20PM 36.7578 -121.1650 140° Southeast 444 511 27,000 780 Climbing Oakland Center
01:21PM 36.6506 -121.0489 139° Southeast 509 586 27,000  Level Oakland Center
01:22PM 36.5367 -120.9239 139° Southeast 542 624 27,000  Level Oakland Center
01:23PM 36.3942 -120.7714 139° Southeast 562 647 27,000  Level Oakland Center
01:24PM 36.2767 -120.6439 139° Southeast 562 647 27,000  Level Oakland Center
01:25PM 36.1564 -120.5181 140° Southeast 564 649 27,000  Level Oakland Center
01:26PM 36.0372 -120.3917 139° Southeast 563 648 27,000  Level Oakland Center
01:27PM 35.9183 -120.2628 139° Southeast 565 650 27,000  Level Oakland Center
01:28PM 35.7986 -120.1386 140° Southeast 559 643 27,000  Level Oakland Center
01:29PM 35.6783 -120.0122 140° Southeast 562 647 27,000 -300 Level Oakland Center
01:30PM 35.5514 -119.8964 143° Southeast 562 647 26,500 -780 Descending Oakland Center
01:31PM 35.4256 -119.7878 145° Southeast 551 634 25,500 -1,020 Descending Oakland Center
01:32PM 35.3028 -119.6828 145° Southeast 538 619 24,500 -720 Descending Oakland Center
01:33PM 35.1558 -119.5583 145° Southeast 532 612 24,000 -720 Descending Los Angeles Center
01:34PM 35.0375 -119.4553 144° Southeast 523 602 23,000 -1,620 Descending Los Angeles Center
01:35PM 34.9181 -119.3556 146° Southeast 521 600 20,700 -2,700 Descending Los Angeles Center
01:36PM 34.7875 -119.2456 145° Southeast 483 556 17,500 -2,640 Descending Los Angeles Center
01:37PM 34.6961 -119.1689 145° Southeast 406 467 15,200 -2,160 Descending Los Angeles Center
01:38PM 34.6117 -119.0947 144° Southeast 364 419 13,100 -1,800 Descending Los Angeles Center
01:39PM 34.5331 -119.0281 145° Southeast 346 398 11,500 -1,500 Descending Los Angeles Center
01:40PM 34.4578 -118.9700 148° Southeast 314 361 10,100 -1,800 Descending Los Angeles Center
01:41PM 34.3819 -118.9136 148° Southeast 322 371 7,800 -1,500 Descending Los Angeles Center
01:43PM 34.3256 -118.8450 135° Southeast 285 328 7,000 -1,320 Descending Los Angeles Center
01:44PM 34.2600 -118.7689 136° Southeast 274 315 5,100 -1,560 Descending Los Angeles Center
01:45PM 34.2317 -118.6919 114° Southeast 259 298 3,800 -720 Descending Los Angeles Center
01:46PM 34.2072 -118.6258 114° Southeast 225 259 3,700 -300 Descending Los Angeles Center
01:46PM 34.2000 -118.6000 109° East 166 191 3,400 -480 Descending Southern California TRACON
01:47PM 34.2000 -118.5500 90° East 135 155 3,000 -240 Descending Southern California TRACON
01:48PM 34.2000 -118.5000 90° East 138 159 3,000 -420 Level Southern California TRACON
01:49PM 34.2000 -118.4500 90° East 137 158 2,200 -840 Descending Southern California TRACON
01:50PM 34.2000 -118.4000 90° East 142 163 1,400 -840 Descending Southern California TRACON
01:53PM 34.2000 -118.3500 90° East  Level FlightAware Approximate
02:00PM 34.2007 -118.3587 90° East  Level Estimated